Decatur, Texas
Current Conditions -  °F | °C
As of 8:55 PM on Tuesday 25 Nov 2014 (Local Time) from KLUD Reporting Station
Clear Clear  
Wind Chill:   Ceiling: Unl
Heat Index: 10°   Visibility: 10mi
Dew Point: -2°   Wind: 8mph
Humidity: 44%   Direction: 180°S
Pressure: 30.13"   Gusts: NA
Location:  33.23°N, 97.59°W
Report Text: KLUD 260255Z AUTO 18007KT 10SM CLR 10/M02 A3013 RMK AO2 T00961021
Loading
Personal Weather Stations






























Interactive Weather Map New forecast layout! Learn more

10-Day Weather Forecast

Advertisements
Track Severe Weather on mobile